sensor_id;sensor_type;location;lat;lon;timestamp;P1;durP1;ratioP1;P2;durP2;ratioP2
74963;SDS011;63521;51.900;4.748;2023-05-07T00:01:45;1.90;;;1.70;;
74963;SDS011;63521;51.900;4.748;2023-05-07T00:04:13;2.58;;;1.73;;
74963;SDS011;63521;51.900;4.748;2023-05-07T00:06:39;2.03;;;1.63;;
74963;SDS011;63521;51.900;4.748;2023-05-07T00:09:05;3.85;;;1.60;;
74963;SDS011;63521;51.900;4.748;2023-05-07T00:11:31;2.10;;;1.70;;
74963;SDS011;63521;51.900;4.748;2023-05-07T00:13:58;2.25;;;1.65;;
74963;SDS011;63521;51.900;4.748;2023-05-07T00:16:23;2.10;;;1.70;;
74963;SDS011;63521;51.900;4.748;2023-05-07T00:18:49;2.22;;;1.70;;
74963;SDS011;63521;51.900;4.748;2023-05-07T00:21:15;2.03;;;1.80;;
74963;SDS011;63521;51.900;4.748;2023-05-07T00:23:44;1.70;;;1.60;;
74963;SDS011;63521;51.900;4.748;2023-05-07T00:26:09;2.20;;;1.52;;
74963;SDS011;63521;51.900;4.748;2023-05-07T00:28:37;2.17;;;1.67;;
74963;SDS011;63521;51.900;4.748;2023-05-07T00:31:03;1.65;;;1.45;;
74963;SDS011;63521;51.900;4.748;2023-05-07T00:33:32;1.80;;;1.55;;
74963;SDS011;63521;51.900;4.748;2023-05-07T00:35:57;2.25;;;1.60;;
74963;SDS011;63521;51.900;4.748;2023-05-07T00:38:24;2.75;;;1.92;;
74963;SDS011;63521;51.900;4.748;2023-05-07T00:40:49;2.42;;;1.50;;
74963;SDS011;63521;51.900;4.748;2023-05-07T00:43:16;1.98;;;1.40;;
74963;SDS011;63521;51.900;4.748;2023-05-07T00:45:42;1.73;;;1.63;;
74963;SDS011;63521;51.900;4.748;2023-05-07T00:48:08;1.85;;;1.60;;
74963;SDS011;63521;51.900;4.748;2023-05-07T00:50:33;2.20;;;1.55;;
74963;SDS011;63521;51.900;4.748;2023-05-07T00:53:00;2.10;;;1.70;;
74963;SDS011;63521;51.900;4.748;2023-05-07T00:55:25;2.08;;;1.52;;
74963;SDS011;63521;51.900;4.748;2023-05-07T00:57:55;2.13;;;1.73;;
74963;SDS011;63521;51.900;4.748;2023-05-07T01:00:23;2.30;;;1.80;;
74963;SDS011;63521;51.900;4.748;2023-05-07T01:02:49;1.90;;;1.60;;
74963;SDS011;63521;51.900;4.748;2023-05-07T01:05:15;2.63;;;1.90;;
74963;SDS011;63521;51.900;4.748;2023-05-07T01:07:44;2.03;;;1.70;;
74963;SDS011;63521;51.900;4.748;2023-05-07T01:10:10;3.05;;;2.30;;
74963;SDS011;63521;51.900;4.748;2023-05-07T01:12:38;2.33;;;1.75;;
74963;SDS011;63521;51.900;4.748;2023-05-07T01:15:05;2.70;;;2.08;;
74963;SDS011;63521;51.900;4.748;2023-05-07T01:17:35;3.15;;;1.90;;
74963;SDS011;63521;51.900;4.748;2023-05-07T01:20:02;2.30;;;1.70;;
74963;SDS011;63521;51.900;4.748;2023-05-07T01:22:34;1.83;;;1.63;;
74963;SDS011;63521;51.900;4.748;2023-05-07T01:25:01;2.38;;;1.90;;
74963;SDS011;63521;51.900;4.748;2023-05-07T01:27:29;2.45;;;1.88;;
74963;SDS011;63521;51.900;4.748;2023-05-07T01:29:56;2.33;;;1.70;;
74963;SDS011;63521;51.900;4.748;2023-05-07T01:32:32;2.78;;;1.90;;
74963;SDS011;63521;51.900;4.748;2023-05-07T01:35:05;2.08;;;1.85;;
74963;SDS011;63521;51.900;4.748;2023-05-07T01:37:33;2.60;;;1.80;;
74963;SDS011;63521;51.900;4.748;2023-05-07T01:39:59;2.00;;;1.65;;
74963;SDS011;63521;51.900;4.748;2023-05-07T01:42:28;2.67;;;1.95;;
74963;SDS011;63521;51.900;4.748;2023-05-07T01:44:55;3.42;;;2.20;;
74963;SDS011;63521;51.900;4.748;2023-05-07T01:47:21;3.17;;;2.28;;
74963;SDS011;63521;51.900;4.748;2023-05-07T01:49:48;3.63;;;2.63;;
74963;SDS011;63521;51.900;4.748;2023-05-07T01:52:14;2.03;;;1.80;;
74963;SDS011;63521;51.900;4.748;2023-05-07T01:54:40;3.55;;;2.33;;
74963;SDS011;63521;51.900;4.748;2023-05-07T01:57:06;3.85;;;2.45;;
74963;SDS011;63521;51.900;4.748;2023-05-07T01:59:31;5.20;;;2.60;;
74963;SDS011;63521;51.900;4.748;2023-05-07T02:01:57;3.75;;;2.70;;
74963;SDS011;63521;51.900;4.748;2023-05-07T02:04:23;4.35;;;2.55;;
74963;SDS011;63521;51.900;4.748;2023-05-07T02:06:49;3.28;;;2.17;;
74963;SDS011;63521;51.900;4.748;2023-05-07T02:09:15;2.53;;;2.08;;
74963;SDS011;63521;51.900;4.748;2023-05-07T02:11:41;3.03;;;2.10;;
74963;SDS011;63521;51.900;4.748;2023-05-07T02:14:06;2.60;;;2.08;;
74963;SDS011;63521;51.900;4.748;2023-05-07T02:16:32;3.35;;;2.50;;
74963;SDS011;63521;51.900;4.748;2023-05-07T02:18:57;2.97;;;2.30;;
74963;SDS011;63521;51.900;4.748;2023-05-07T02:21:25;3.90;;;1.95;;
74963;SDS011;63521;51.900;4.748;2023-05-07T02:23:51;3.92;;;2.00;;
74963;SDS011;63521;51.900;4.748;2023-05-07T02:26:17;3.08;;;2.35;;
74963;SDS011;63521;51.900;4.748;2023-05-07T02:28:43;1.98;;;1.77;;
74963;SDS011;63521;51.900;4.748;2023-05-07T02:31:08;2.42;;;2.00;;
74963;SDS011;63521;51.900;4.748;2023-05-07T02:33:34;2.47;;;1.90;;
74963;SDS011;63521;51.900;4.748;2023-05-07T02:36:07;1.98;;;1.65;;
74963;SDS011;63521;51.900;4.748;2023-05-07T02:38:33;2.25;;;1.70;;
74963;SDS011;63521;51.900;4.748;2023-05-07T02:40:59;2.00;;;1.70;;
74963;SDS011;63521;51.900;4.748;2023-05-07T02:43:26;2.03;;;1.60;;
74963;SDS011;63521;51.900;4.748;2023-05-07T02:46:08;2.33;;;1.83;;
74963;SDS011;63521;51.900;4.748;2023-05-07T02:48:34;2.22;;;1.60;;
74963;SDS011;63521;51.900;4.748;2023-05-07T02:50:59;2.92;;;1.60;;
74963;SDS011;63521;51.900;4.748;2023-05-07T02:53:26;1.90;;;1.50;;
74963;SDS011;63521;51.900;4.748;2023-05-07T02:56:01;2.00;;;1.50;;
74963;SDS011;63521;51.900;4.748;2023-05-07T02:58:27;2.00;;;1.77;;
74963;SDS011;63521;51.900;4.748;2023-05-07T03:00:52;2.55;;;1.70;;
74963;SDS011;63521;51.900;4.748;2023-05-07T03:03:20;2.08;;;1.60;;
74963;SDS011;63521;51.900;4.748;2023-05-07T03:05:46;2.13;;;1.40;;
74963;SDS011;63521;51.900;4.748;2023-05-07T03:08:11;2.13;;;1.60;;
74963;SDS011;63521;51.900;4.748;2023-05-07T03:10:37;2.13;;;1.67;;
74963;SDS011;63521;51.900;4.748;2023-05-07T03:13:03;1.67;;;1.38;;
74963;SDS011;63521;51.900;4.748;2023-05-07T03:15:30;2.13;;;1.60;;
74963;SDS011;63521;51.900;4.748;2023-05-07T03:17:56;1.98;;;1.58;;
74963;SDS011;63521;51.900;4.748;2023-05-07T03:20:22;1.65;;;1.48;;
74963;SDS011;63521;51.900;4.748;2023-05-07T03:22:48;1.95;;;1.52;;
74963;SDS011;63521;51.900;4.748;2023-05-07T03:25:13;2.28;;;1.70;;
74963;SDS011;63521;51.900;4.748;2023-05-07T03:27:40;1.95;;;1.50;;
74963;SDS011;63521;51.900;4.748;2023-05-07T03:30:07;1.85;;;1.65;;
74963;SDS011;63521;51.900;4.748;2023-05-07T03:32:34;1.65;;;1.50;;
74963;SDS011;63521;51.900;4.748;2023-05-07T03:35:00;1.85;;;1.38;;
74963;SDS011;63521;51.900;4.748;2023-05-07T03:37:27;1.40;;;1.30;;
74963;SDS011;63521;51.900;4.748;2023-05-07T03:39:53;2.65;;;1.77;;
74963;SDS011;63521;51.900;4.748;2023-05-07T03:42:23;2.15;;;1.70;;
74963;SDS011;63521;51.900;4.748;2023-05-07T03:44:52;1.60;;;1.42;;
74963;SDS011;63521;51.900;4.748;2023-05-07T03:47:18;1.50;;;1.35;;
74963;SDS011;63521;51.900;4.748;2023-05-07T03:49:44;1.35;;;1.25;;
74963;SDS011;63521;51.900;4.748;2023-05-07T03:52:10;1.38;;;1.27;;
74963;SDS011;63521;51.900;4.748;2023-05-07T03:54:36;2.42;;;1.42;;
74963;SDS011;63521;51.900;4.748;2023-05-07T03:57:04;2.03;;;1.42;;
74963;SDS011;63521;51.900;4.748;2023-05-07T03:59:34;1.13;;;1.02;;
74963;SDS011;63521;51.900;4.748;2023-05-07T04:02:01;2.88;;;1.33;;
74963;SDS011;63521;51.900;4.748;2023-05-07T04:04:26;1.52;;;1.20;;
74963;SDS011;63521;51.900;4.748;2023-05-07T04:07:09;1.50;;;1.40;;
74963;SDS011;63521;51.900;4.748;2023-05-07T04:09:35;1.65;;;1.48;;
74963;SDS011;63521;51.900;4.748;2023-05-07T04:12:01;1.38;;;1.27;;
74963;SDS011;63521;51.900;4.748;2023-05-07T04:14:27;1.33;;;1.23;;
74963;SDS011;63521;51.900;4.748;2023-05-07T04:16:54;1.77;;;1.48;;
74963;SDS011;63521;51.900;4.748;2023-05-07T04:19:20;1.65;;;1.33;;
74963;SDS011;63521;51.900;4.748;2023-05-07T04:21:45;1.73;;;1.50;;
74963;SDS011;63521;51.900;4.748;2023-05-07T04:24:11;1.38;;;1.27;;
74963;SDS011;63521;51.900;4.748;2023-05-07T04:26:36;1.38;;;1.20;;
74963;SDS011;63521;51.900;4.748;2023-05-07T04:29:02;1.55;;;1.45;;
74963;SDS011;63521;51.900;4.748;2023-05-07T04:31:28;1.63;;;1.52;;
74963;SDS011;63521;51.900;4.748;2023-05-07T04:33:55;1.50;;;1.40;;
74963;SDS011;63521;51.900;4.748;2023-05-07T04:36:22;1.50;;;1.40;;
74963;SDS011;63521;51.900;4.748;2023-05-07T04:38:48;2.85;;;1.30;;
74963;SDS011;63521;51.900;4.748;2023-05-07T04:41:15;1.98;;;1.55;;
74963;SDS011;63521;51.900;4.748;2023-05-07T04:43:44;1.58;;;1.40;;
74963;SDS011;63521;51.900;4.748;2023-05-07T04:46:10;2.40;;;1.73;;
74963;SDS011;63521;51.900;4.748;2023-05-07T04:48:37;2.03;;;1.80;;
74963;SDS011;63521;51.900;4.748;2023-05-07T04:51:02;2.08;;;1.83;;
74963;SDS011;63521;51.900;4.748;2023-05-07T04:53:30;1.98;;;1.70;;
74963;SDS011;63521;51.900;4.748;2023-05-07T04:55:56;2.17;;;1.85;;
74963;SDS011;63521;51.900;4.748;2023-05-07T04:58:22;2.70;;;1.70;;
74963;SDS011;63521;51.900;4.748;2023-05-07T05:00:47;2.15;;;1.90;;
74963;SDS011;63521;51.900;4.748;2023-05-07T05:03:15;1.90;;;1.60;;
74963;SDS011;63521;51.900;4.748;2023-05-07T05:05:41;1.88;;;1.63;;
74963;SDS011;63521;51.900;4.748;2023-05-07T05:08:10;1.80;;;1.60;;
74963;SDS011;63521;51.900;4.748;2023-05-07T05:10:35;2.95;;;1.90;;
74963;SDS011;63521;51.900;4.748;2023-05-07T05:13:01;2.00;;;1.63;;
74963;SDS011;63521;51.900;4.748;2023-05-07T05:15:26;2.80;;;1.60;;
74963;SDS011;63521;51.900;4.748;2023-05-07T05:17:51;1.73;;;1.50;;
74963;SDS011;63521;51.900;4.748;2023-05-07T05:20:17;2.30;;;1.83;;
74963;SDS011;63521;51.900;4.748;2023-05-07T05:22:43;2.63;;;1.77;;
74963;SDS011;63521;51.900;4.748;2023-05-07T05:25:08;2.65;;;1.88;;
74963;SDS011;63521;51.900;4.748;2023-05-07T05:27:36;2.40;;;1.70;;
74963;SDS011;63521;51.900;4.748;2023-05-07T05:30:02;2.63;;;1.80;;
74963;SDS011;63521;51.900;4.748;2023-05-07T05:32:30;1.90;;;1.70;;
74963;SDS011;63521;51.900;4.748;2023-05-07T05:34:55;2.70;;;1.65;;
74963;SDS011;63521;51.900;4.748;2023-05-07T05:37:24;1.50;;;1.40;;
74963;SDS011;63521;51.900;4.748;2023-05-07T05:39:50;2.58;;;1.90;;
74963;SDS011;63521;51.900;4.748;2023-05-07T05:42:15;3.03;;;1.92;;
74963;SDS011;63521;51.900;4.748;2023-05-07T05:44:41;2.67;;;1.92;;
74963;SDS011;63521;51.900;4.748;2023-05-07T05:47:09;2.17;;;1.77;;
74963;SDS011;63521;51.900;4.748;2023-05-07T05:49:34;3.15;;;2.00;;
74963;SDS011;63521;51.900;4.748;2023-05-07T05:52:03;3.20;;;2.35;;
74963;SDS011;63521;51.900;4.748;2023-05-07T05:54:29;4.00;;;2.53;;
74963;SDS011;63521;51.900;4.748;2023-05-07T05:59:53;2.80;;;2.00;;
74963;SDS011;63521;51.900;4.748;2023-05-07T06:03:00;2.30;;;1.65;;
74963;SDS011;63521;51.900;4.748;2023-05-07T06:06:15;2.58;;;1.73;;
74963;SDS011;63521;51.900;4.748;2023-05-07T06:13:59;3.28;;;2.20;;
74963;SDS011;63521;51.900;4.748;2023-05-07T06:16:30;4.20;;;2.20;;
74963;SDS011;63521;51.900;4.748;2023-05-07T06:18:55;4.88;;;2.30;;
74963;SDS011;63521;51.900;4.748;2023-05-07T06:22:01;2.45;;;2.00;;
74963;SDS011;63521;51.900;4.748;2023-05-07T06:34:59;3.47;;;2.50;;
74963;SDS011;63521;51.900;4.748;2023-05-07T06:37:27;3.90;;;2.65;;
74963;SDS011;63521;51.900;4.748;2023-05-07T06:39:57;3.03;;;2.08;;
74963;SDS011;63521;51.900;4.748;2023-05-07T06:46:19;4.13;;;2.45;;
74963;SDS011;63521;51.900;4.748;2023-05-07T06:49:41;2.92;;;2.33;;
74963;SDS011;63521;51.900;4.748;2023-05-07T06:52:21;3.92;;;2.50;;
74963;SDS011;63521;51.900;4.748;2023-05-07T06:55:20;3.47;;;2.53;;
74963;SDS011;63521;51.900;4.748;2023-05-07T06:57:54;3.10;;;2.40;;
74963;SDS011;63521;51.900;4.748;2023-05-07T07:00:33;4.88;;;3.15;;
74963;SDS011;63521;51.900;4.748;2023-05-07T07:03:02;3.50;;;2.53;;
74963;SDS011;63521;51.900;4.748;2023-05-07T07:05:32;5.32;;;3.00;;
74963;SDS011;63521;51.900;4.748;2023-05-07T07:09:09;5.50;;;3.42;;
74963;SDS011;63521;51.900;4.748;2023-05-07T07:11:36;4.22;;;2.92;;
74963;SDS011;63521;51.900;4.748;2023-05-07T07:14:04;5.70;;;3.22;;
74963;SDS011;63521;51.900;4.748;2023-05-07T07:16:30;4.25;;;3.22;;
74963;SDS011;63521;51.900;4.748;2023-05-07T07:18:57;6.53;;;3.75;;
74963;SDS011;63521;51.900;4.748;2023-05-07T07:21:26;6.28;;;4.03;;
74963;SDS011;63521;51.900;4.748;2023-05-07T07:23:54;6.82;;;4.20;;
74963;SDS011;63521;51.900;4.748;2023-05-07T07:26:19;7.85;;;4.30;;
74963;SDS011;63521;51.900;4.748;2023-05-07T07:28:46;5.80;;;3.58;;
74963;SDS011;63521;51.900;4.748;2023-05-07T07:31:14;6.25;;;4.43;;
74963;SDS011;63521;51.900;4.748;2023-05-07T07:33:40;6.13;;;3.85;;
74963;SDS011;63521;51.900;4.748;2023-05-07T07:36:06;5.55;;;3.80;;
74963;SDS011;63521;51.900;4.748;2023-05-07T07:38:35;8.75;;;4.13;;
74963;SDS011;63521;51.900;4.748;2023-05-07T07:41:01;6.28;;;4.43;;
74963;SDS011;63521;51.900;4.748;2023-05-07T07:43:28;8.15;;;4.95;;
74963;SDS011;63521;51.900;4.748;2023-05-07T07:45:54;10.98;;;5.88;;
74963;SDS011;63521;51.900;4.748;2023-05-07T07:48:20;9.70;;;5.82;;
74963;SDS011;63521;51.900;4.748;2023-05-07T07:50:48;6.03;;;4.32;;
74963;SDS011;63521;51.900;4.748;2023-05-07T07:53:14;6.68;;;5.18;;
74963;SDS011;63521;51.900;4.748;2023-05-07T07:55:42;7.18;;;4.75;;
74963;SDS011;63521;51.900;4.748;2023-05-07T07:58:07;6.68;;;4.68;;
74963;SDS011;63521;51.900;4.748;2023-05-07T08:00:36;6.50;;;4.93;;
74963;SDS011;63521;51.900;4.748;2023-05-07T08:03:04;6.82;;;4.60;;
74963;SDS011;63521;51.900;4.748;2023-05-07T08:05:31;6.28;;;4.28;;
74963;SDS011;63521;51.900;4.748;2023-05-07T08:07:57;5.82;;;3.83;;
74963;SDS011;63521;51.900;4.748;2023-05-07T08:10:23;5.63;;;4.07;;
74963;SDS011;63521;51.900;4.748;2023-05-07T08:12:54;7.65;;;3.90;;
74963;SDS011;63521;51.900;4.748;2023-05-07T08:15:27;6.82;;;4.00;;
74963;SDS011;63521;51.900;4.748;2023-05-07T08:17:53;4.80;;;3.60;;
74963;SDS011;63521;51.900;4.748;2023-05-07T08:20:19;7.45;;;3.70;;
74963;SDS011;63521;51.900;4.748;2023-05-07T08:22:45;7.90;;;4.70;;
74963;SDS011;63521;51.900;4.748;2023-05-07T08:25:11;7.47;;;3.85;;
74963;SDS011;63521;51.900;4.748;2023-05-07T08:27:36;7.35;;;3.92;;
74963;SDS011;63521;51.900;4.748;2023-05-07T08:30:04;5.95;;;3.72;;
74963;SDS011;63521;51.900;4.748;2023-05-07T08:32:30;5.95;;;3.80;;
74963;SDS011;63521;51.900;4.748;2023-05-07T08:34:56;6.55;;;3.58;;
74963;SDS011;63521;51.900;4.748;2023-05-07T08:37:22;4.78;;;3.45;;
74963;SDS011;63521;51.900;4.748;2023-05-07T08:39:49;5.32;;;3.42;;
74963;SDS011;63521;51.900;4.748;2023-05-07T08:42:23;5.22;;;3.53;;
74963;SDS011;63521;51.900;4.748;2023-05-07T08:47:43;3.10;;;2.53;;
74963;SDS011;63521;51.900;4.748;2023-05-07T08:50:12;5.22;;;2.83;;
74963;SDS011;63521;51.900;4.748;2023-05-07T08:52:43;4.72;;;2.70;;
74963;SDS011;63521;51.900;4.748;2023-05-07T08:55:20;4.38;;;2.42;;
74963;SDS011;63521;51.900;4.748;2023-05-07T08:58:16;4.72;;;2.63;;
74963;SDS011;63521;51.900;4.748;2023-05-07T09:01:47;4.20;;;2.67;;
74963;SDS011;63521;51.900;4.748;2023-05-07T09:04:50;4.63;;;2.55;;
74963;SDS011;63521;51.900;4.748;2023-05-07T09:11:00;3.15;;;2.42;;
74963;SDS011;63521;51.900;4.748;2023-05-07T09:13:54;4.28;;;2.40;;
74963;SDS011;63521;51.900;4.748;2023-05-07T09:17:00;3.03;;;2.40;;
74963;SDS011;63521;51.900;4.748;2023-05-07T09:27:01;3.67;;;2.90;;
74963;SDS011;63521;51.900;4.748;2023-05-07T09:29:27;3.20;;;2.40;;
74963;SDS011;63521;51.900;4.748;2023-05-07T09:32:00;3.58;;;2.20;;
74963;SDS011;63521;51.900;4.748;2023-05-07T09:34:28;2.22;;;2.03;;
74963;SDS011;63521;51.900;4.748;2023-05-07T09:36:54;2.53;;;1.95;;
74963;SDS011;63521;51.900;4.748;2023-05-07T09:39:19;3.05;;;2.28;;
74963;SDS011;63521;51.900;4.748;2023-05-07T09:41:46;3.20;;;2.03;;
74963;SDS011;63521;51.900;4.748;2023-05-07T09:44:13;3.15;;;2.28;;
74963;SDS011;63521;51.900;4.748;2023-05-07T09:46:46;2.70;;;2.20;;
74963;SDS011;63521;51.900;4.748;2023-05-07T09:49:18;2.50;;;2.30;;
74963;SDS011;63521;51.900;4.748;2023-05-07T09:51:50;4.05;;;3.25;;
74963;SDS011;63521;51.900;4.748;2023-05-07T09:56:47;2.97;;;2.13;;
74963;SDS011;63521;51.900;4.748;2023-05-07T09:59:29;3.05;;;2.05;;
74963;SDS011;63521;51.900;4.748;2023-05-07T10:02:00;3.13;;;1.65;;
74963;SDS011;63521;51.900;4.748;2023-05-07T10:04:32;3.45;;;2.03;;
74963;SDS011;63521;51.900;4.748;2023-05-07T10:06:58;2.40;;;1.90;;
74963;SDS011;63521;51.900;4.748;2023-05-07T10:09:34;2.65;;;1.92;;
74963;SDS011;63521;51.900;4.748;2023-05-07T10:12:09;2.30;;;1.90;;
74963;SDS011;63521;51.900;4.748;2023-05-07T10:14:45;2.35;;;2.00;;
74963;SDS011;63521;51.900;4.748;2023-05-07T10:17:35;2.05;;;1.70;;
74963;SDS011;63521;51.900;4.748;2023-05-07T10:20:06;3.25;;;1.85;;
74963;SDS011;63521;51.900;4.748;2023-05-07T10:22:40;4.10;;;2.40;;
74963;SDS011;63521;51.900;4.748;2023-05-07T10:25:28;2.35;;;1.92;;
74963;SDS011;63521;51.900;4.748;2023-05-07T10:27:57;2.08;;;1.70;;
74963;SDS011;63521;51.900;4.748;2023-05-07T10:34:12;2.67;;;1.83;;
74963;SDS011;63521;51.900;4.748;2023-05-07T10:36:43;3.75;;;2.13;;
74963;SDS011;63521;51.900;4.748;2023-05-07T10:39:13;3.65;;;1.92;;
74963;SDS011;63521;51.900;4.748;2023-05-07T10:41:53;2.22;;;1.77;;
74963;SDS011;63521;51.900;4.748;2023-05-07T10:44:28;2.95;;;1.70;;
74963;SDS011;63521;51.900;4.748;2023-05-07T10:53:13;2.90;;;1.90;;
74963;SDS011;63521;51.900;4.748;2023-05-07T10:58:54;1.92;;;1.55;;
74963;SDS011;63521;51.900;4.748;2023-05-07T11:04:22;1.90;;;1.58;;
74963;SDS011;63521;51.900;4.748;2023-05-07T11:07:21;2.80;;;1.80;;
74963;SDS011;63521;51.900;4.748;2023-05-07T11:15:36;3.95;;;1.90;;
74963;SDS011;63521;51.900;4.748;2023-05-07T11:18:03;2.67;;;1.60;;
74963;SDS011;63521;51.900;4.748;2023-05-07T11:20:44;1.73;;;1.50;;
74963;SDS011;63521;51.900;4.748;2023-05-07T11:26:09;2.30;;;1.60;;
74963;SDS011;63521;51.900;4.748;2023-05-07T11:28:39;2.33;;;1.80;;
74963;SDS011;63521;51.900;4.748;2023-05-07T11:31:06;3.03;;;1.90;;
74963;SDS011;63521;51.900;4.748;2023-05-07T11:33:32;2.45;;;1.80;;
74963;SDS011;63521;51.900;4.748;2023-05-07T11:35:58;2.17;;;1.73;;
74963;SDS011;63521;51.900;4.748;2023-05-07T11:38:24;2.45;;;1.63;;
74963;SDS011;63521;51.900;4.748;2023-05-07T11:40:54;1.77;;;1.52;;
74963;SDS011;63521;51.900;4.748;2023-05-07T11:43:22;2.20;;;1.75;;
74963;SDS011;63521;51.900;4.748;2023-05-07T11:45:50;2.35;;;1.55;;
74963;SDS011;63521;51.900;4.748;2023-05-07T11:48:16;2.30;;;1.52;;
74963;SDS011;63521;51.900;4.748;2023-05-07T11:50:51;1.90;;;1.58;;
74963;SDS011;63521;51.900;4.748;2023-05-07T11:53:17;1.67;;;1.50;;
74963;SDS011;63521;51.900;4.748;2023-05-07T11:55:43;1.75;;;1.42;;
74963;SDS011;63521;51.900;4.748;2023-05-07T11:58:10;1.55;;;1.45;;
74963;SDS011;63521;51.900;4.748;2023-05-07T12:00:37;2.00;;;1.67;;
74963;SDS011;63521;51.900;4.748;2023-05-07T12:03:03;2.45;;;1.88;;
74963;SDS011;63521;51.900;4.748;2023-05-07T12:05:29;4.55;;;2.50;;
74963;SDS011;63521;51.900;4.748;2023-05-07T12:07:57;1.60;;;1.50;;
74963;SDS011;63521;51.900;4.748;2023-05-07T12:10:23;2.67;;;2.00;;
74963;SDS011;63521;51.900;4.748;2023-05-07T12:12:50;1.90;;;1.40;;
74963;SDS011;63521;51.900;4.748;2023-05-07T12:15:15;1.77;;;1.58;;
74963;SDS011;63521;51.900;4.748;2023-05-07T12:17:45;1.83;;;1.60;;
74963;SDS011;63521;51.900;4.748;2023-05-07T12:20:11;2.17;;;1.50;;
74963;SDS011;63521;51.900;4.748;2023-05-07T12:22:37;10.73;;;6.05;;
74963;SDS011;63521;51.900;4.748;2023-05-07T12:25:03;9.77;;;5.97;;
74963;SDS011;63521;51.900;4.748;2023-05-07T12:27:28;9.15;;;6.65;;
74963;SDS011;63521;51.900;4.748;2023-05-07T12:29:56;11.32;;;6.75;;
74963;SDS011;63521;51.900;4.748;2023-05-07T12:32:25;8.20;;;5.80;;
74963;SDS011;63521;51.900;4.748;2023-05-07T12:35:17;8.48;;;4.95;;
74963;SDS011;63521;51.900;4.748;2023-05-07T12:37:45;6.55;;;4.30;;
74963;SDS011;63521;51.900;4.748;2023-05-07T12:40:44;6.07;;;3.53;;
74963;SDS011;63521;51.900;4.748;2023-05-07T12:43:30;5.35;;;2.92;;
74963;SDS011;63521;51.900;4.748;2023-05-07T12:46:00;6.68;;;2.95;;
74963;SDS011;63521;51.900;4.748;2023-05-07T12:48:47;5.88;;;3.13;;
74963;SDS011;63521;51.900;4.748;2023-05-07T12:51:20;2.70;;;2.30;;
74963;SDS011;63521;51.900;4.748;2023-05-07T12:53:55;3.80;;;2.55;;
74963;SDS011;63521;51.900;4.748;2023-05-07T13:00:48;3.13;;;2.15;;
74963;SDS011;63521;51.900;4.748;2023-05-07T13:04:29;2.97;;;2.10;;
74963;SDS011;63521;51.900;4.748;2023-05-07T13:07:06;2.55;;;2.15;;
74963;SDS011;63521;51.900;4.748;2023-05-07T13:11:16;3.30;;;2.40;;
74963;SDS011;63521;51.900;4.748;2023-05-07T13:14:46;4.32;;;2.90;;
74963;SDS011;63521;51.900;4.748;2023-05-07T13:17:57;2.65;;;2.03;;
74963;SDS011;63521;51.900;4.748;2023-05-07T13:20:38;2.65;;;2.35;;
74963;SDS011;63521;51.900;4.748;2023-05-07T13:23:04;2.65;;;2.08;;
74963;SDS011;63521;51.900;4.748;2023-05-07T13:25:33;2.05;;;1.85;;
74963;SDS011;63521;51.900;4.748;2023-05-07T13:28:33;2.45;;;1.95;;
74963;SDS011;63521;51.900;4.748;2023-05-07T13:34:36;4.47;;;1.58;;
74963;SDS011;63521;51.900;4.748;2023-05-07T13:46:24;1.80;;;1.70;;
74963;SDS011;63521;51.900;4.748;2023-05-07T13:50:19;2.05;;;1.70;;
74963;SDS011;63521;51.900;4.748;2023-05-07T13:53:40;2.45;;;1.73;;
74963;SDS011;63521;51.900;4.748;2023-05-07T14:01:04;3.13;;;1.70;;
74963;SDS011;63521;51.900;4.748;2023-05-07T14:04:11;2.20;;;1.55;;
74963;SDS011;63521;51.900;4.748;2023-05-07T14:07:40;2.25;;;1.80;;
74963;SDS011;63521;51.900;4.748;2023-05-07T14:10:41;2.42;;;1.70;;
74963;SDS011;63521;51.900;4.748;2023-05-07T14:13:32;1.70;;;1.48;;
74963;SDS011;63521;51.900;4.748;2023-05-07T14:19:43;4.57;;;1.92;;
74963;SDS011;63521;51.900;4.748;2023-05-07T14:22:36;2.88;;;2.25;;
74963;SDS011;63521;51.900;4.748;2023-05-07T14:25:23;2.78;;;2.10;;
74963;SDS011;63521;51.900;4.748;2023-05-07T14:28:02;3.47;;;2.22;;
74963;SDS011;63521;51.900;4.748;2023-05-07T14:30:54;2.38;;;2.00;;
74963;SDS011;63521;51.900;4.748;2023-05-07T14:33:21;2.60;;;2.00;;
74963;SDS011;63521;51.900;4.748;2023-05-07T14:35:48;3.22;;;2.20;;
74963;SDS011;63521;51.900;4.748;2023-05-07T14:38:15;1.75;;;1.65;;
74963;SDS011;63521;51.900;4.748;2023-05-07T14:40:43;2.72;;;1.90;;
74963;SDS011;63521;51.900;4.748;2023-05-07T14:43:11;2.20;;;2.00;;
74963;SDS011;63521;51.900;4.748;2023-05-07T14:45:58;2.15;;;1.85;;
74963;SDS011;63521;51.900;4.748;2023-05-07T14:48:26;3.65;;;1.80;;
74963;SDS011;63521;51.900;4.748;2023-05-07T14:50:54;2.53;;;1.80;;
74963;SDS011;63521;51.900;4.748;2023-05-07T14:53:23;2.38;;;2.03;;
74963;SDS011;63521;51.900;4.748;2023-05-07T14:55:49;2.60;;;2.05;;
74963;SDS011;63521;51.900;4.748;2023-05-07T14:58:15;1.98;;;1.65;;
74963;SDS011;63521;51.900;4.748;2023-05-07T15:00:40;1.88;;;1.70;;
74963;SDS011;63521;51.900;4.748;2023-05-07T15:03:09;2.00;;;1.80;;
74963;SDS011;63521;51.900;4.748;2023-05-07T15:05:35;2.55;;;1.70;;
74963;SDS011;63521;51.900;4.748;2023-05-07T15:08:01;2.08;;;1.80;;
74963;SDS011;63521;51.900;4.748;2023-05-07T15:10:27;2.08;;;1.70;;
74963;SDS011;63521;51.900;4.748;2023-05-07T15:12:53;1.70;;;1.60;;
74963;SDS011;63521;51.900;4.748;2023-05-07T15:15:18;3.45;;;2.10;;
74963;SDS011;63521;51.900;4.748;2023-05-07T15:17:43;2.80;;;2.00;;
74963;SDS011;63521;51.900;4.748;2023-05-07T15:20:09;2.67;;;2.03;;
74963;SDS011;63521;51.900;4.748;2023-05-07T15:22:35;3.15;;;2.22;;
74963;SDS011;63521;51.900;4.748;2023-05-07T15:25:02;2.70;;;2.17;;
74963;SDS011;63521;51.900;4.748;2023-05-07T15:27:29;3.25;;;2.50;;
74963;SDS011;63521;51.900;4.748;2023-05-07T15:29:55;3.00;;;2.35;;
74963;SDS011;63521;51.900;4.748;2023-05-07T15:32:21;2.67;;;2.33;;
74963;SDS011;63521;51.900;4.748;2023-05-07T15:34:46;3.00;;;2.38;;
74963;SDS011;63521;51.900;4.748;2023-05-07T15:37:12;2.40;;;2.20;;
74963;SDS011;63521;51.900;4.748;2023-05-07T15:44:53;2.97;;;2.20;;
74963;SDS011;63521;51.900;4.748;2023-05-07T15:47:20;2.72;;;2.17;;
74963;SDS011;63521;51.900;4.748;2023-05-07T15:49:55;3.55;;;2.40;;
74963;SDS011;63521;51.900;4.748;2023-05-07T15:52:36;4.13;;;3.10;;
74963;SDS011;63521;51.900;4.748;2023-05-07T15:55:03;3.47;;;2.60;;
74963;SDS011;63521;51.900;4.748;2023-05-07T15:57:30;3.90;;;3.30;;
74963;SDS011;63521;51.900;4.748;2023-05-07T15:59:56;2.97;;;2.60;;
74963;SDS011;63521;51.900;4.748;2023-05-07T16:02:22;3.88;;;2.33;;
74963;SDS011;63521;51.900;4.748;2023-05-07T16:04:49;3.90;;;2.60;;
74963;SDS011;63521;51.900;4.748;2023-05-07T16:16:39;4.15;;;2.63;;
74963;SDS011;63521;51.900;4.748;2023-05-07T16:19:05;2.50;;;2.20;;
74963;SDS011;63521;51.900;4.748;2023-05-07T16:21:31;2.55;;;2.13;;
74963;SDS011;63521;51.900;4.748;2023-05-07T16:24:00;2.72;;;2.50;;
74963;SDS011;63521;51.900;4.748;2023-05-07T16:26:26;3.38;;;2.70;;
74963;SDS011;63521;51.900;4.748;2023-05-07T16:28:52;4.05;;;2.65;;
74963;SDS011;63521;51.900;4.748;2023-05-07T16:31:17;2.47;;;2.28;;
74963;SDS011;63521;51.900;4.748;2023-05-07T16:33:43;3.97;;;2.58;;
74963;SDS011;63521;51.900;4.748;2023-05-07T16:36:09;3.28;;;2.30;;
74963;SDS011;63521;51.900;4.748;2023-05-07T16:38:35;3.80;;;2.50;;
74963;SDS011;63521;51.900;4.748;2023-05-07T16:41:00;4.32;;;3.13;;
74963;SDS011;63521;51.900;4.748;2023-05-07T16:43:26;3.22;;;2.78;;
74963;SDS011;63521;51.900;4.748;2023-05-07T16:45:51;2.97;;;2.50;;
74963;SDS011;63521;51.900;4.748;2023-05-07T16:48:17;5.55;;;2.67;;
74963;SDS011;63521;51.900;4.748;2023-05-07T16:50:42;3.10;;;2.60;;
74963;SDS011;63521;51.900;4.748;2023-05-07T16:53:09;5.00;;;3.20;;
74963;SDS011;63521;51.900;4.748;2023-05-07T16:55:38;3.17;;;2.50;;
74963;SDS011;63521;51.900;4.748;2023-05-07T16:58:08;3.05;;;2.20;;